Terminal Aerodrome Forecast
Issued by NWS

Home | Current Version | Previous Version | Text Only | Print | Product List | Glossary On
Versions: 1 2 3 4 5 6 7 8 9 10 11 12 13 14 15 16 17 18 19 20 21 22 23 24 25 26 27 28 29 30 31 32 33 34 35 36 37 38 39 40 41 42
000
FTUS45 KPSR 010148 AAA
TAFIWA
TAF AMD
KIWA 010148Z 0102/0124 29010G16KT P6SM VCSH SCT090 BKN150 BKN200
      TEMPO 0102/0103 -SHRA BKN090
     FM010300 09012KT P6SM VCTS SCT090CB OVC140
     FM010800 12006KT P6SM FEW090 BKN120 BKN200
      AMD LTD TO CLD VIS AND WIND 0103/0113=

USA.gov is the U.S. government's official web portal to all federal, state and local government web resources and services.